Time;durP1;ratioP1;P1;durP2;ratioP2;P2;SDS_P1;SDS_P2;PMS_P1;PMS_P2;Temp;Humidity;BMP_temperature;BMP_pressure;BME280_temperature;BME280_humidity;BME280_pressure;Samples;Min_cycle;Max_cycle;Signal;HPM_P1;HPM_P2
2023/04/28 00:00:13;;;;;;;2.53;0.60;;;4.30;99.90;;;;;;4940295;28;20134;-64
2023/04/28 00:02:40;;;;;;;3.78;1.10;;;4.30;99.90;;;;;;4939271;28;20630;-67
2023/04/28 00:05:08;;;;;;;4.05;0.80;;;4.30;99.90;;;;;;4932627;28;20067;-69
2023/04/28 00:07:35;;;;;;;1.25;0.60;;;4.30;99.90;;;;;;4945966;28;20039;-69
2023/04/28 00:10:02;;;;;;;0.90;0.60;;;4.30;99.90;;;;;;4940876;28;20057;-62
2023/04/28 00:12:29;;;;;;;8.20;0.88;;;4.30;99.90;;;;;;4936686;28;20075;-62
2023/04/28 00:14:55;;;;;;;0.70;0.70;;;4.30;99.90;;;;;;4922895;29;20056;-64
2023/04/28 00:17:22;;;;;;;1.38;0.80;;;4.30;99.90;;;;;;4934397;28;20418;-64
2023/04/28 00:19:49;;;;;;;2.28;0.65;;;4.20;99.90;;;;;;4944547;28;20447;-73
2023/04/28 00:22:17;;;;;;;2.92;0.98;;;4.20;99.90;;;;;;4919405;29;20701;-63
2023/04/28 00:24:44;;;;;;;2.47;0.63;;;4.20;99.90;;;;;;4921314;29;20052;-68
2023/04/28 00:27:11;;;;;;;2.08;1.10;;;4.20;99.90;;;;;;4928654;29;20087;-71
2023/04/28 00:29:37;;;;;;;2.08;0.65;;;4.20;99.90;;;;;;4935233;28;20051;-68
2023/04/28 00:32:04;;;;;;;0.85;0.60;;;4.20;99.90;;;;;;4943380;28;20146;-63
2023/04/28 00:34:32;;;;;;;1.05;0.73;;;4.20;99.90;;;;;;4945401;28;20047;-66
2023/04/28 00:36:59;;;;;;;3.38;1.48;;;4.20;99.90;;;;;;4947559;28;20605;-72
2023/04/28 00:39:26;;;;;;;4.90;1.23;;;4.20;99.90;;;;;;4948134;28;20139;-63
2023/04/28 00:41:54;;;;;;;3.55;0.80;;;4.20;99.90;;;;;;4942864;28;20082;-63
2023/04/28 00:44:20;;;;;;;4.07;1.15;;;4.20;99.90;;;;;;4940200;28;20066;-62
2023/04/28 00:46:48;;;;;;;3.58;1.08;;;4.20;99.90;;;;;;4943861;28;20093;-63
2023/04/28 00:49:15;;;;;;;2.42;0.60;;;4.10;99.90;;;;;;4931031;28;20070;-65
2023/04/28 00:51:42;;;;;;;3.30;0.90;;;4.20;99.90;;;;;;4931232;28;20066;-62
2023/04/28 00:54:13;;;;;;;2.25;1.02;;;4.20;99.90;;;;;;4944823;28;20059;-65
2023/04/28 00:56:41;;;;;;;1.50;0.70;;;4.10;99.90;;;;;;4943839;28;20519;-66
2023/04/28 00:59:08;;;;;;;2.05;0.60;;;4.20;99.90;;;;;;4934549;28;20059;-70
2023/04/28 01:01:36;;;;;;;0.77;0.65;;;4.20;99.90;;;;;;4964042;28;20085;-66
2023/04/28 01:04:03;;;;;;;2.28;0.88;;;4.20;99.90;;;;;;4945540;28;20517;-65
2023/04/28 01:06:32;;;;;;;5.25;1.00;;;4.20;99.90;;;;;;4954259;28;20051;-63
2023/04/28 01:09:00;;;;;;;2.17;0.93;;;4.10;99.90;;;;;;4944630;28;20078;-62
2023/04/28 01:11:27;;;;;;;2.28;0.77;;;4.20;99.90;;;;;;4944112;28;20619;-69
2023/04/28 01:14:06;;;;;;;2.53;0.60;;;4.10;99.90;;;;;;4953902;28;20058;-67
2023/04/28 01:16:37;;;;;;;2.33;0.50;;;4.10;99.90;;;;;;4954158;28;20054;-64
2023/04/28 01:19:21;;;;;;;2.17;0.60;;;4.10;99.90;;;;;;4951831;28;20140;-68
2023/04/28 01:21:50;;;;;;;3.22;0.88;;;4.10;99.90;;;;;;4938336;28;20070;-66
2023/04/28 01:24:21;;;;;;;1.92;0.68;;;4.10;99.90;;;;;;4936826;28;20510;-65
2023/04/28 01:26:48;;;;;;;2.55;0.77;;;4.10;99.90;;;;;;4939766;28;20070;-63
2023/04/28 01:29:15;;;;;;;7.55;2.53;;;4.10;99.90;;;;;;4941699;28;20545;-71
2023/04/28 01:31:42;;;;;;;4.53;0.85;;;4.10;99.90;;;;;;4941903;28;20054;-65
2023/04/28 01:34:09;;;;;;;2.15;1.95;;;4.10;99.90;;;;;;4954887;28;21987;-64
2023/04/28 01:36:36;;;;;;;1.98;1.02;;;4.00;99.90;;;;;;4940679;28;20063;-68
2023/04/28 01:39:04;;;;;;;2.22;0.70;;;4.00;99.90;;;;;;4941381;28;20105;-62
2023/04/28 01:41:34;;;;;;;2.75;0.88;;;4.00;99.90;;;;;;4944140;28;20073;-63
2023/04/28 01:44:03;;;;;;;1.52;0.60;;;4.00;99.90;;;;;;4938915;28;20055;-63
2023/04/28 01:46:30;;;;;;;4.50;0.77;;;3.90;99.90;;;;;;4944371;28;20094;-67
2023/04/28 01:48:57;;;;;;;3.03;0.88;;;3.90;99.90;;;;;;4944239;28;20087;-66
2023/04/28 01:51:25;;;;;;;7.70;1.38;;;3.90;99.90;;;;;;4948394;28;20059;-63
2023/04/28 01:53:52;;;;;;;3.33;0.77;;;3.90;99.90;;;;;;4953221;28;20056;-76
2023/04/28 01:56:20;;;;;;;3.58;1.00;;;3.80;99.90;;;;;;4940932;28;20165;-63
2023/04/28 01:58:48;;;;;;;1.52;0.80;;;3.90;99.90;;;;;;4959786;28;20424;-67
2023/04/28 02:01:15;;;;;;;3.05;0.98;;;3.80;99.90;;;;;;4941790;28;20055;-68
2023/04/28 02:03:43;;;;;;;1.67;1.20;;;3.80;99.90;;;;;;4938022;28;20770;-60
2023/04/28 02:06:10;;;;;;;2.40;1.25;;;3.80;99.90;;;;;;4943681;28;20150;-64
2023/04/28 02:08:37;;;;;;;5.35;1.33;;;3.80;99.90;;;;;;4956843;28;20047;-64
2023/04/28 02:11:04;;;;;;;4.00;1.40;;;3.80;99.90;;;;;;4945302;28;20082;-67
2023/04/28 02:13:31;;;;;;;2.35;1.05;;;3.80;99.90;;;;;;4937452;28;20065;-61
2023/04/28 02:16:01;;;;;;;1.27;0.63;;;3.80;99.90;;;;;;4956927;28;20048;-64
2023/04/28 02:18:28;;;;;;;1.63;0.90;;;3.80;99.90;;;;;;4940396;28;20067;-63
2023/04/28 02:21:07;;;;;;;;;;;3.80;99.90;;;;;;4958377;28;20482;-63
2023/04/28 02:23:33;;;;;;;1.20;1.10;;;3.80;99.90;;;;;;4950582;28;20417;-65
2023/04/28 02:26:04;;;;;;;2.92;0.95;;;3.80;99.90;;;;;;4941439;28;20084;-63
2023/04/28 02:28:31;;;;;;;4.57;1.52;;;3.80;99.90;;;;;;4958592;28;20147;-68
2023/04/28 02:31:08;;;;;;;1.05;0.90;;;3.80;99.90;;;;;;4946164;28;20043;-63
2023/04/28 02:33:36;;;;;;;2.38;0.80;;;3.80;99.90;;;;;;4944015;28;20079;-68
2023/04/28 02:36:04;;;;;;;1.33;1.08;;;3.80;99.90;;;;;;4947523;28;20121;-64
2023/04/28 02:38:31;;;;;;;2.65;1.08;;;3.80;99.90;;;;;;4951185;28;20047;-64
2023/04/28 02:41:00;;;;;;;1.10;0.80;;;3.80;99.90;;;;;;4961011;28;20405;-63
2023/04/28 02:43:27;;;;;;;3.22;1.17;;;3.70;99.90;;;;;;4964518;28;20062;-63
2023/04/28 02:45:54;;;;;;;3.13;0.98;;;3.70;99.90;;;;;;4959398;28;20063;-64
2023/04/28 02:48:22;;;;;;;3.00;1.98;;;3.70;99.90;;;;;;4940421;28;20466;-63
2023/04/28 02:50:50;;;;;;;5.53;1.73;;;3.70;99.90;;;;;;4962087;28;20418;-64
2023/04/28 02:53:16;;;;;;;2.65;0.95;;;3.70;99.90;;;;;;4945955;28;20075;-63
2023/04/28 02:55:44;;;;;;;4.00;1.05;;;3.70;99.90;;;;;;4966155;28;20138;-62
2023/04/28 02:58:11;;;;;;;3.60;1.20;;;3.70;99.90;;;;;;4948914;28;20437;-63
2023/04/28 03:00:38;;;;;;;1.00;0.85;;;3.70;99.90;;;;;;4961980;28;20494;-65
2023/04/28 03:03:05;;;;;;;1.42;0.73;;;3.80;99.90;;;;;;4963254;28;20062;-69
2023/04/28 03:05:32;;;;;;;1.95;1.15;;;3.70;99.90;;;;;;4942326;28;20457;-63
2023/04/28 03:07:59;;;;;;;1.13;0.93;;;3.70;99.90;;;;;;4939889;28;20090;-63
2023/04/28 03:10:26;;;;;;;2.38;0.93;;;3.60;99.90;;;;;;4961325;28;20501;-63
2023/04/28 03:12:53;;;;;;;2.63;1.00;;;3.70;99.90;;;;;;4949809;28;20446;-67
2023/04/28 03:15:20;;;;;;;3.78;1.63;;;3.70;99.90;;;;;;4949460;28;20052;-62
2023/04/28 03:17:47;;;;;;;0.90;0.80;;;3.60;99.90;;;;;;4942954;28;20055;-63
2023/04/28 03:20:14;;;;;;;1.35;1.02;;;3.60;99.90;;;;;;4963931;28;20058;-65
2023/04/28 03:22:41;;;;;;;1.45;0.93;;;3.60;99.90;;;;;;4940112;28;20150;-62
2023/04/28 03:25:09;;;;;;;2.42;0.93;;;3.60;99.90;;;;;;4965475;28;20063;-63
2023/04/28 03:27:44;;;;;;;1.15;0.95;;;3.60;99.90;;;;;;4946766;28;20440;-65
2023/04/28 03:30:11;;;;;;;2.63;1.20;;;3.60;99.90;;;;;;4946855;28;20371;-63
2023/04/28 03:32:39;;;;;;;3.30;1.20;;;3.60;99.90;;;;;;4948306;28;20059;-67
2023/04/28 03:35:07;;;;;;;3.15;1.13;;;3.50;99.90;;;;;;4947224;28;20058;-62
2023/04/28 03:37:33;;;;;;;3.15;0.90;;;3.60;99.90;;;;;;4969338;28;20079;-66
2023/04/28 03:40:00;;;;;;;2.53;1.23;;;3.50;99.90;;;;;;4952842;28;20043;-67
2023/04/28 03:42:31;;;;;;;2.85;1.40;;;3.50;99.90;;;;;;4945822;28;21455;-62
2023/04/28 03:45:09;;;;;;;5.63;1.60;;;3.50;99.90;;;;;;4954475;28;20521;-65
2023/04/28 03:47:36;;;;;;;2.05;1.13;;;3.60;99.90;;;;;;4940596;28;20055;-63
2023/04/28 03:50:03;;;;;;;2.63;1.45;;;3.60;99.90;;;;;;4951402;28;20094;-63
2023/04/28 03:52:31;;;;;;;3.22;1.13;;;3.60;99.90;;;;;;4943780;28;20225;-63
2023/04/28 03:54:58;;;;;;;3.95;3.25;;;3.60;99.90;;;;;;4954583;28;20059;-62
2023/04/28 03:57:25;;;;;;;1.95;1.45;;;3.60;99.90;;;;;;4946715;28;20051;-64
2023/04/28 03:59:51;;;;;;;3.97;1.55;;;3.60;99.90;;;;;;4939477;28;20138;-64
2023/04/28 04:02:18;;;;;;;3.08;1.15;;;3.70;99.90;;;;;;4958120;28;20070;-64
2023/04/28 04:04:46;;;;;;;1.95;1.23;;;3.70;99.90;;;;;;4948797;28;20043;-65
2023/04/28 04:07:13;;;;;;;3.42;1.42;;;3.70;99.90;;;;;;4945867;28;20452;-63
2023/04/28 04:09:40;;;;;;;4.70;1.17;;;3.70;99.90;;;;;;4947359;28;20098;-66
2023/04/28 04:12:08;;;;;;;2.03;1.13;;;3.80;99.90;;;;;;4960993;28;20426;-62
2023/04/28 04:14:35;;;;;;;3.83;1.70;;;3.80;99.90;;;;;;4949349;28;20055;-76
2023/04/28 04:17:02;;;;;;;4.30;1.58;;;3.80;99.90;;;;;;4947201;28;20065;-63
2023/04/28 04:19:29;;;;;;;13.27;1.60;;;3.80;99.90;;;;;;4956327;28;20050;-64
2023/04/28 04:21:56;;;;;;;8.10;2.13;;;3.90;99.90;;;;;;4962207;28;20070;-66
2023/04/28 04:24:24;;;;;;;4.90;1.63;;;3.90;99.90;;;;;;4957747;28;20394;-62
2023/04/28 04:26:51;;;;;;;3.13;1.60;;;3.90;99.90;;;;;;4957928;28;20086;-72
2023/04/28 04:29:31;;;;;;;;;;;3.90;99.90;;;;;;4956806;28;20466;-62
2023/04/28 04:32:01;;;;;;;3.53;1.40;;;3.90;99.90;;;;;;4962678;28;19930;-67
2023/04/28 04:34:28;;;;;;;3.97;1.25;;;3.90;99.90;;;;;;4946337;28;20080;-64
2023/04/28 04:36:55;;;;;;;5.57;1.17;;;4.00;99.90;;;;;;4956465;28;20047;-64
2023/04/28 04:39:22;;;;;;;3.85;2.30;;;4.00;99.90;;;;;;4952202;28;20052;-67
2023/04/28 04:41:49;;;;;;;3.65;1.58;;;4.10;99.90;;;;;;4950498;28;20119;-64
2023/04/28 04:44:38;;;;;;;4.68;1.63;;;4.10;99.90;;;;;;4936076;28;20056;-62
2023/04/28 04:47:10;;;;;;;8.93;1.85;;;4.10;99.90;;;;;;4946541;28;20051;-70
2023/04/28 04:49:36;;;;;;;2.40;1.48;;;4.10;99.90;;;;;;4942869;28;20059;-62
2023/04/28 04:52:05;;;;;;;4.60;1.50;;;4.10;99.90;;;;;;4961925;28;20114;-62
2023/04/28 04:54:32;;;;;;;5.85;1.70;;;4.20;99.90;;;;;;4946658;28;20142;-64
2023/04/28 04:56:59;;;;;;;4.90;1.75;;;4.20;99.90;;;;;;4937043;28;20114;-64
2023/04/28 04:59:45;;;;;;;4.75;1.48;;;4.30;99.90;;;;;;4945398;28;20066;-64
2023/04/28 05:02:15;;;;;;;6.32;2.25;;;4.30;99.90;;;;;;4942808;28;20184;-61
2023/04/28 05:04:43;;;;;;;9.23;1.77;;;4.30;99.90;;;;;;4961083;28;20063;-64
2023/04/28 05:07:13;;;;;;;11.15;1.67;;;4.40;99.90;;;;;;4958450;28;20674;-64
2023/04/28 05:09:40;;;;;;;2.97;1.17;;;4.40;99.90;;;;;;4946241;28;20051;-76
2023/04/28 05:12:07;;;;;;;4.82;1.85;;;4.40;99.90;;;;;;4954743;28;20135;-62
2023/04/28 05:14:34;;;;;;;10.68;2.97;;;4.50;99.90;;;;;;4962184;28;20111;-62
2023/04/28 05:17:01;;;;;;;6.85;2.20;;;4.50;99.90;;;;;;4942704;28;20052;-67
2023/04/28 05:19:35;;;;;;;12.82;1.85;;;4.50;99.90;;;;;;4944810;29;20079;-63
2023/04/28 05:22:03;;;;;;;4.20;1.30;;;4.50;99.90;;;;;;4943940;28;20066;-67
2023/04/28 05:24:31;;;;;;;2.53;1.52;;;4.50;99.90;;;;;;4955522;28;20138;-62
2023/04/28 05:26:58;;;;;;;5.40;1.67;;;4.60;99.90;;;;;;4960118;28;20420;-64
2023/04/28 05:29:25;;;;;;;3.90;1.58;;;4.60;99.90;;;;;;4959701;28;20053;-75
2023/04/28 05:31:52;;;;;;;5.82;2.08;;;4.60;99.90;;;;;;4959691;28;20055;-61
2023/04/28 05:34:21;;;;;;;3.75;1.85;;;4.60;99.90;;;;;;4946224;28;20059;-66
2023/04/28 05:36:48;;;;;;;3.97;1.45;;;4.70;99.90;;;;;;4937851;28;20114;-63
2023/04/28 05:39:17;;;;;;;3.40;1.45;;;4.70;99.90;;;;;;4952349;28;20464;-67
2023/04/28 05:41:43;;;;;;;3.70;1.52;;;4.70;99.90;;;;;;4947878;28;20445;-61
2023/04/28 05:44:11;;;;;;;6.25;2.03;;;4.70;99.90;;;;;;4940269;28;20057;-73
2023/04/28 05:46:38;;;;;;;8.38;1.90;;;4.80;99.90;;;;;;4956569;28;20058;-64
2023/04/28 05:49:05;;;;;;;5.07;1.95;;;4.80;99.90;;;;;;4962144;28;20063;-61
2023/04/28 05:51:36;;;;;;;7.22;2.38;;;4.80;99.90;;;;;;4957550;28;20070;-66
2023/04/28 05:54:03;;;;;;;20.52;4.43;;;4.90;99.90;;;;;;4945243;28;20047;-62
2023/04/28 05:56:35;;;;;;;10.57;2.10;;;4.90;99.90;;;;;;4949976;28;20043;-62
2023/04/28 05:59:03;;;;;;;6.35;1.80;;;5.00;99.90;;;;;;4966319;28;20055;-61
2023/04/28 06:01:31;;;;;;;9.60;1.77;;;5.00;99.90;;;;;;4953434;28;20387;-61
2023/04/28 06:03:58;;;;;;;8.30;1.92;;;5.00;99.90;;;;;;4950229;28;20551;-65
2023/04/28 06:06:26;;;;;;;3.05;1.60;;;5.10;99.90;;;;;;4952543;28;20971;-61
2023/04/28 06:08:53;;;;;;;4.75;1.30;;;5.10;99.90;;;;;;4954983;28;20578;-68
2023/04/28 06:11:21;;;;;;;8.07;2.47;;;5.10;99.90;;;;;;4951503;28;20452;-64
2023/04/28 06:13:49;;;;;;;4.55;2.25;;;5.20;99.90;;;;;;4956069;28;20523;-66
2023/04/28 06:16:17;;;;;;;5.45;1.58;;;5.20;99.90;;;;;;4960950;28;20055;-61
2023/04/28 06:18:45;;;;;;;3.00;1.50;;;5.20;99.90;;;;;;4963069;28;20074;-76
2023/04/28 06:21:16;;;;;;;6.00;1.20;;;5.20;99.90;;;;;;4966376;28;20071;-64
2023/04/28 06:23:43;;;;;;;3.75;1.38;;;5.20;99.90;;;;;;4964149;28;20082;-61
2023/04/28 06:26:10;;;;;;;5.63;2.05;;;5.30;99.90;;;;;;4943398;28;20624;-69
2023/04/28 06:28:38;;;;;;;1.08;1.05;;;5.20;99.90;;;;;;4963648;28;20431;-63
2023/04/28 06:31:07;;;;;;;2.95;1.90;;;5.30;99.90;;;;;;4953042;28;20054;-63
2023/04/28 06:33:33;;;;;;;1.33;1.23;;;5.30;99.90;;;;;;4964606;28;20602;-62
2023/04/28 06:36:00;;;;;;;7.18;1.63;;;5.30;99.90;;;;;;4957866;28;20133;-65
2023/04/28 06:38:27;;;;;;;1.67;1.17;;;5.40;99.90;;;;;;4946840;28;20047;-63
2023/04/28 06:40:54;;;;;;;3.75;1.17;;;5.40;99.90;;;;;;4965284;28;20134;-68
2023/04/28 06:43:21;;;;;;;5.00;1.55;;;5.40;99.90;;;;;;4954745;28;20066;-62
2023/04/28 06:46:08;;;;;;;15.25;2.35;;;5.40;99.90;;;;;;4963453;28;20050;-69
2023/04/28 06:48:35;;;;;;;2.15;1.83;;;5.40;99.90;;;;;;4943855;28;20039;-62
2023/04/28 06:51:03;;;;;;;3.58;1.10;;;5.40;99.90;;;;;;4948700;28;20058;-72
2023/04/28 06:53:32;;;;;;;7.30;1.73;;;5.40;99.90;;;;;;4956876;28;20462;-65
2023/04/28 06:56:01;;;;;;;3.55;1.67;;;5.50;99.90;;;;;;4964984;28;20493;-62
2023/04/28 06:58:28;;;;;;;4.80;1.75;;;5.50;99.90;;;;;;4940396;28;20051;-63
2023/04/28 07:00:54;;;;;;;5.75;1.38;;;5.50;99.90;;;;;;4961139;28;20077;-63
2023/04/28 07:03:21;;;;;;;1.35;0.88;;;5.50;99.90;;;;;;4944821;28;20058;-64
2023/04/28 07:05:48;;;;;;;3.33;1.23;;;5.50;99.90;;;;;;4944446;28;20082;-62
2023/04/28 07:08:16;;;;;;;6.43;1.70;;;5.50;99.90;;;;;;4945579;28;20130;-62
2023/04/28 07:10:43;;;;;;;2.55;1.13;;;5.60;99.90;;;;;;4945802;28;20074;-62
2023/04/28 07:13:10;;;;;;;4.07;1.38;;;5.60;99.90;;;;;;4947321;28;20130;-65
2023/04/28 07:15:37;;;;;;;2.33;1.10;;;5.60;99.90;;;;;;4945550;28;20063;-63
2023/04/28 07:18:04;;;;;;;5.13;1.20;;;5.60;99.90;;;;;;4947614;28;20048;-66
2023/04/28 07:20:31;;;;;;;3.85;2.22;;;5.60;99.90;;;;;;4941985;28;20047;-63
2023/04/28 07:22:58;;;;;;;4.45;1.08;;;5.70;99.90;;;;;;4948756;28;20098;-63
2023/04/28 07:25:25;;;;;;;4.68;1.05;;;5.70;99.90;;;;;;4956089;28;20467;-62
2023/04/28 07:27:53;;;;;;;3.22;1.13;;;5.80;99.90;;;;;;4945987;28;20425;-61
2023/04/28 07:30:20;;;;;;;5.70;1.13;;;5.80;99.90;;;;;;4949767;28;20079;-63
2023/04/28 07:32:54;;;;;;;2.03;1.27;;;5.80;99.90;;;;;;4944247;28;20087;-61
2023/04/28 07:35:21;;;;;;;2.97;1.17;;;5.90;99.90;;;;;;4944449;28;20664;-65
2023/04/28 07:37:48;;;;;;;3.75;1.67;;;5.90;99.90;;;;;;4954389;28;20158;-64
2023/04/28 07:40:15;;;;;;;3.38;1.33;;;6.00;99.90;;;;;;4950502;28;20527;-62
2023/04/28 07:42:42;;;;;;;1.80;1.02;;;5.90;99.90;;;;;;4944823;28;20485;-63
2023/04/28 07:45:10;;;;;;;1.63;1.13;;;5.90;99.90;;;;;;4947034;28;20059;-65
2023/04/28 07:47:38;;;;;;;1.55;1.10;;;5.90;99.90;;;;;;4939638;28;20506;-63
2023/04/28 07:50:05;;;;;;;3.13;0.90;;;6.10;99.90;;;;;;4929906;28;20051;-67
2023/04/28 07:52:33;;;;;;;5.40;1.08;;;6.00;99.90;;;;;;4923838;28;20062;-63
2023/04/28 07:55:01;;;;;;;6.85;1.67;;;6.00;99.90;;;;;;4927469;29;20055;-65
2023/04/28 07:57:28;;;;;;;3.17;1.30;;;6.10;99.90;;;;;;4925399;29;20052;-61
2023/04/28 07:59:55;;;;;;;2.65;1.00;;;6.10;99.90;;;;;;4940671;28;20081;-64
2023/04/28 08:02:22;;;;;;;3.22;1.20;;;6.20;99.90;;;;;;4941472;28;20137;-67
2023/04/28 08:04:49;;;;;;;1.73;0.82;;;6.20;99.90;;;;;;4945907;28;20062;-61
2023/04/28 08:07:16;;;;;;;2.63;1.50;;;6.30;99.90;;;;;;4935261;28;20063;-62
2023/04/28 08:09:46;;;;;;;3.55;1.15;;;6.30;99.90;;;;;;4929415;29;20080;-64
2023/04/28 08:12:14;;;;;;;2.53;1.27;;;6.30;99.90;;;;;;4937461;28;20059;-64
2023/04/28 08:14:41;;;;;;;3.78;1.52;;;6.30;99.90;;;;;;4948814;28;20509;-63
2023/04/28 08:17:08;;;;;;;3.17;1.08;;;6.40;99.90;;;;;;4941354;28;20070;-66
2023/04/28 08:19:35;;;;;;;1.58;0.85;;;6.50;99.90;;;;;;4946151;28;20505;-63
2023/04/28 08:22:06;;;;;;;1.85;1.17;;;6.50;99.90;;;;;;4944491;28;20051;-68
2023/04/28 08:24:33;;;;;;;;;;;6.60;99.90;;;;;;4952304;28;20057;-67
2023/04/28 08:27:02;;;;;;;1.45;0.70;;;6.50;99.90;;;;;;4941485;28;19922;-61
2023/04/28 08:29:30;;;;;;;2.63;1.13;;;6.50;99.90;;;;;;4942758;28;20069;-66
2023/04/28 08:31:58;;;;;;;1.65;1.30;;;6.50;99.90;;;;;;4931345;28;20062;-66
2023/04/28 08:34:25;;;;;;;2.33;1.30;;;6.60;99.90;;;;;;4935481;28;20077;-77
2023/04/28 08:36:53;;;;;;;3.53;1.17;;;6.50;99.90;;;;;;4944455;28;20051;-61
2023/04/28 08:39:21;;;;;;;5.57;1.55;;;6.60;99.90;;;;;;4942222;28;20501;-65
2023/04/28 08:41:49;;;;;;;2.97;2.08;;;6.60;99.90;;;;;;4941794;28;20047;-71
2023/04/28 08:44:17;;;;;;;0.98;0.70;;;6.70;99.90;;;;;;4927809;28;20052;-62
2023/04/28 08:46:45;;;;;;;3.70;1.30;;;6.70;99.90;;;;;;4944332;28;20055;-61
2023/04/28 08:49:17;;;;;;;1.27;0.68;;;6.80;99.90;;;;;;4941306;28;20047;-64
2023/04/28 08:51:49;;;;;;;1.40;0.93;;;6.90;99.90;;;;;;4940933;28;20574;-63
2023/04/28 08:54:17;;;;;;;1.35;1.13;;;6.80;99.90;;;;;;4945684;28;20066;-68
2023/04/28 08:56:54;;;;;;;1.83;1.40;;;6.90;99.90;;;;;;4919100;28;20147;-66
2023/04/28 08:59:21;;;;;;;3.63;1.73;;;6.90;99.90;;;;;;4938098;28;20070;-68
2023/04/28 09:01:49;;;;;;;4.45;1.40;;;6.90;99.90;;;;;;4943588;28;20476;-62
2023/04/28 09:04:16;;;;;;;1.90;1.55;;;7.00;99.90;;;;;;4943155;28;20071;-61
2023/04/28 09:06:45;;;;;;;2.00;1.33;;;7.00;99.90;;;;;;4926679;29;20074;-61
2023/04/28 09:09:18;;;;;;;3.03;1.00;;;7.00;99.90;;;;;;4941313;28;20070;-64
2023/04/28 09:11:52;;;;;;;2.70;1.20;;;7.00;99.90;;;;;;4944526;28;20405;-63
2023/04/28 09:14:19;;;;;;;3.53;1.15;;;7.00;99.90;;;;;;4938010;28;20051;-69
2023/04/28 09:16:46;;;;;;;3.25;1.05;;;7.10;99.90;;;;;;4942193;28;20073;-66
2023/04/28 09:19:15;;;;;;;2.33;1.35;;;7.10;99.90;;;;;;4942867;28;20118;-62
2023/04/28 09:21:53;;;;;;;2.88;1.10;;;7.10;99.90;;;;;;4961113;28;20141;-69
2023/04/28 09:24:42;;;;;;;4.60;1.88;;;6.90;99.90;;;;;;4920029;28;20106;-64
2023/04/28 09:27:10;;;;;;;4.22;1.60;;;7.00;99.90;;;;;;4941496;28;20479;-62
2023/04/28 09:29:38;;;;;;;1.65;1.00;;;6.90;99.90;;;;;;4938685;28;20087;-64
2023/04/28 09:32:19;;;;;;;5.35;1.75;;;6.90;99.90;;;;;;4943593;28;20051;-68
2023/04/28 09:34:49;;;;;;;3.67;1.55;;;7.10;99.90;;;;;;4943736;28;20398;-63
2023/04/28 09:37:18;;;;;;;11.95;2.63;;;7.00;99.90;;;;;;4943873;28;20053;-63
2023/04/28 09:39:50;;;;;;;5.15;1.60;;;6.80;99.90;;;;;;4940100;28;20512;-67
2023/04/28 09:42:32;;;;;;;3.70;2.13;;;6.80;99.90;;;;;;4940046;28;20051;-63
2023/04/28 09:45:14;;;;;;;4.00;2.40;;;6.90;99.90;;;;;;4937480;28;20468;-63
2023/04/28 09:47:47;;;;;;;4.55;1.95;;;7.00;99.90;;;;;;4944602;28;20069;-63
2023/04/28 09:50:16;;;;;;;4.03;1.95;;;7.10;99.90;;;;;;4945855;28;20151;-71
2023/04/28 09:52:55;;;;;;;3.55;1.85;;;7.30;99.90;;;;;;4947089;28;20058;-63
2023/04/28 09:55:23;;;;;;;4.82;1.98;;;7.20;99.90;;;;;;4950643;28;20050;-67
2023/04/28 09:57:53;;;;;;;4.05;1.73;;;7.20;99.90;;;;;;4941444;28;20385;-67
2023/04/28 10:00:21;;;;;;;5.43;1.67;;;7.20;99.90;;;;;;4944117;28;20090;-62
2023/04/28 10:02:50;;;;;;;6.22;1.70;;;7.30;99.90;;;;;;4945420;28;20233;-65
2023/04/28 10:05:18;;;;;;;7.90;2.17;;;7.20;99.90;;;;;;4928516;28;20062;-62
2023/04/28 10:07:45;;;;;;;3.85;2.17;;;7.30;99.90;;;;;;4922943;29;20059;-66
2023/04/28 10:10:13;;;;;;;3.70;1.42;;;7.40;99.90;;;;;;4941070;28;20077;-66
2023/04/28 10:12:40;;;;;;;4.43;1.35;;;7.50;99.90;;;;;;4949114;28;20552;-66
2023/04/28 10:15:09;;;;;;;3.85;1.67;;;7.60;99.90;;;;;;4935867;28;20071;-64
2023/04/28 10:17:37;;;;;;;3.88;1.52;;;7.60;99.90;;;;;;4943036;28;20482;-63
2023/04/28 10:20:05;;;;;;;3.67;1.23;;;7.60;99.90;;;;;;4941984;28;20047;-65
2023/04/28 10:22:58;;;;;;;5.43;1.83;;;7.70;99.90;;;;;;4945978;28;20110;-61
2023/04/28 10:25:25;;;;;;;9.63;1.73;;;7.80;99.90;;;;;;4944752;28;20075;-63
2023/04/28 10:27:53;;;;;;;3.90;1.20;;;7.80;99.90;;;;;;4943800;28;20067;-62
2023/04/28 10:30:24;;;;;;;5.28;1.60;;;8.10;99.90;;;;;;4943930;28;20049;-64
2023/04/28 10:33:08;;;;;;;6.35;1.33;;;8.30;99.90;;;;;;4940557;28;20067;-67
2023/04/28 10:35:39;;;;;;;1.00;0.90;;;8.40;99.90;;;;;;4932480;28;20098;-66
2023/04/28 10:38:07;;;;;;;3.35;1.30;;;8.50;99.90;;;;;;4937048;28;20141;-63
2023/04/28 10:40:44;;;;;;;2.75;1.23;;;8.50;99.90;;;;;;4941681;28;20470;-66
2023/04/28 10:43:13;;;;;;;2.08;0.50;;;8.50;99.90;;;;;;4935212;28;20150;-72
2023/04/28 10:46:01;;;;;;;1.60;1.30;;;8.60;99.90;;;;;;4943661;28;20051;-70
2023/04/28 10:48:28;;;;;;;1.65;0.75;;;8.70;99.90;;;;;;4943929;28;20055;-67
2023/04/28 10:51:04;;;;;;;3.78;0.68;;;8.70;99.90;;;;;;4950522;28;20412;-62
2023/04/28 10:53:43;;;;;;;2.15;1.15;;;8.90;99.90;;;;;;4942204;28;20039;-62
2023/04/28 10:56:25;;;;;;;1.83;1.58;;;8.80;99.90;;;;;;4948800;28;20055;-66
2023/04/28 10:58:59;;;;;;;2.92;0.70;;;8.80;99.90;;;;;;4948299;28;20047;-62
2023/04/28 11:01:33;;;;;;;4.60;1.50;;;8.90;99.90;;;;;;4946118;28;20575;-65
2023/04/28 11:06:39;;;;;;;7.60;1.17;;;9.10;99.90;;;;;;4951212;28;20780;-66
2023/04/28 11:09:32;;;;;;;3.10;1.58;;;9.10;99.90;;;;;;4941066;28;20122;-62
2023/04/28 11:11:58;;;;;;;2.70;1.13;;;9.10;99.90;;;;;;4935850;28;20066;-68
2023/04/28 11:14:34;;;;;;;1.67;1.00;;;9.20;99.90;;;;;;4956154;28;20047;-65
2023/04/28 11:17:02;;;;;;;2.53;1.05;;;9.30;99.90;;;;;;4943807;28;20064;-66
2023/04/28 11:19:34;;;;;;;3.45;0.65;;;9.30;99.90;;;;;;4947454;28;20067;-63
2023/04/28 11:22:10;;;;;;;4.68;0.90;;;9.30;99.90;;;;;;4943516;28;20083;-68
2023/04/28 11:24:37;;;;;;;1.38;0.57;;;9.40;99.90;;;;;;4947132;28;20047;-63
2023/04/28 11:27:04;;;;;;;0.70;0.45;;;9.60;99.90;;;;;;4942332;28;20493;-66
2023/04/28 11:29:39;;;;;;;0.50;0.40;;;9.60;99.90;;;;;;4946987;28;20047;-62
2023/04/28 11:32:08;;;;;;;1.33;1.00;;;9.80;99.90;;;;;;4944226;28;20141;-74
2023/04/28 11:34:36;;;;;;;5.35;0.70;;;9.90;99.60;;;;;;4946133;28;20081;-65
2023/04/28 11:37:05;;;;;;;4.63;1.33;;;10.00;99.70;;;;;;4944445;28;20050;-68
2023/04/28 11:39:33;;;;;;;1.27;0.45;;;10.10;99.70;;;;;;4941628;28;20047;-66
2023/04/28 11:42:08;;;;;;;1.77;1.00;;;10.10;98.90;;;;;;4947250;28;20051;-61
2023/04/28 11:44:35;;;;;;;4.47;1.00;;;10.00;98.40;;;;;;4942373;28;20481;-68
2023/04/28 11:47:03;;;;;;;1.98;0.70;;;10.20;98.00;;;;;;4945964;28;20058;-63
2023/04/28 11:49:44;;;;;;;2.50;0.80;;;10.20;99.30;;;;;;4943724;28;20055;-66
2023/04/28 11:52:12;;;;;;;2.33;0.95;;;10.10;99.20;;;;;;4942922;28;20055;-66
2023/04/28 11:54:42;;;;;;;3.53;1.02;;;10.30;99.90;;;;;;4944440;28;20482;-62
2023/04/28 11:57:20;;;;;;;3.47;1.27;;;10.30;99.90;;;;;;4927594;29;20055;-62
2023/04/28 11:59:47;;;;;;;1.52;0.77;;;10.20;99.90;;;;;;4927046;29;20071;-62
2023/04/28 12:02:23;;;;;;;2.50;0.95;;;10.40;99.90;;;;;;4928344;28;20052;-63
2023/04/28 12:04:50;;;;;;;2.10;1.00;;;10.60;99.90;;;;;;4945110;28;20441;-63
2023/04/28 12:07:18;;;;;;;1.75;0.85;;;10.90;99.30;;;;;;4942190;28;20047;-65
2023/04/28 12:09:47;;;;;;;4.85;1.60;;;11.10;98.30;;;;;;4927964;28;20059;-63
2023/04/28 12:12:26;;;;;;;2.88;0.98;;;11.40;98.60;;;;;;4946786;28;20142;-69
2023/04/28 12:15:11;;;;;;;1.23;0.50;;;11.30;97.60;;;;;;4949194;28;20090;-65
2023/04/28 12:17:40;;;;;;;10.07;1.23;;;11.30;96.90;;;;;;4949620;28;20150;-65
2023/04/28 12:20:09;;;;;;;4.50;1.10;;;11.40;97.30;;;;;;4948143;28;20070;-65
2023/04/28 12:22:49;;;;;;;4.60;0.80;;;11.20;96.70;;;;;;4948585;28;20804;-65
2023/04/28 12:25:18;;;;;;;;;;;11.30;96.60;;;;;;4946885;28;20047;-65
2023/04/28 12:28:06;;;;;;;1.35;0.90;;;11.50;96.00;;;;;;4951132;28;19926;-66
2023/04/28 12:30:38;;;;;;;3.53;1.00;;;11.50;94.40;;;;;;4943630;28;20067;-62
2023/04/28 12:33:04;;;;;;;0.60;0.57;;;11.60;96.70;;;;;;4945030;28;20047;-74
2023/04/28 12:35:32;;;;;;;3.35;0.63;;;11.80;95.40;;;;;;4944202;28;20512;-66
2023/04/28 12:37:59;;;;;;;1.20;0.50;;;12.00;95.00;;;;;;4945750;28;20512;-66
2023/04/28 12:40:26;;;;;;;0.63;0.50;;;12.10;94.90;;;;;;4955996;28;20056;-65
2023/04/28 12:42:53;;;;;;;2.38;0.68;;;12.30;94.10;;;;;;4945508;28;20081;-66
2023/04/28 12:45:20;;;;;;;1.75;0.60;;;12.40;93.60;;;;;;4948642;28;20067;-62
2023/04/28 12:47:47;;;;;;;0.88;0.73;;;12.20;91.30;;;;;;4948654;28;20488;-66
2023/04/28 12:50:14;;;;;;;4.03;0.80;;;12.30;93.20;;;;;;4941749;28;20047;-66
2023/04/28 12:52:41;;;;;;;1.23;0.70;;;12.30;93.20;;;;;;4952073;28;20415;-70
2023/04/28 12:55:08;;;;;;;2.95;0.60;;;12.20;92.30;;;;;;4940602;29;20059;-66
2023/04/28 12:57:35;;;;;;;0.98;0.50;;;12.40;92.30;;;;;;4926757;28;20039;-62
2023/04/28 13:00:06;;;;;;;2.55;0.52;;;12.60;91.90;;;;;;4948636;28;20051;-63
2023/04/28 13:02:33;;;;;;;1.67;0.98;;;12.60;91.60;;;;;;4942430;28;20083;-65
2023/04/28 13:05:01;;;;;;;3.00;0.70;;;12.40;90.90;;;;;;4949744;28;20058;-67
2023/04/28 13:07:29;;;;;;;0.63;0.60;;;12.30;91.80;;;;;;4950871;28;20122;-63
2023/04/28 13:09:56;;;;;;;0.77;0.50;;;12.30;90.40;;;;;;4943489;28;20055;-67